Karin S — V2BM6 — position and weather

sailwx.info

Track history (hours):
 
Tides and Currents Weather Stations Pressure Air Temp Water Temp Dewpoint Dewpoint Depression Visibility Wind Speed Wind Dir Waves Ship Positions

Karin S

Last reported at 2015-Jan-26 05:34 UTC. Time now 2015-Jan-26 06:26 UTC.
Position N 43°25' E 004°50'.

Length 148 m; draft 7 m.

Type: Ship. MMSI: 304871000.

Date/timePositionNaut miles runAvg speedWind from/ knotsBaromVisibWave heightAir tempDewpointWater temp
2015-Jan-26 05:34N 43°25' E 004°50'0 0.0
2015-Jan-26 04:33N 43°25' E 004°50'0 0.0
2015-Jan-26 03:33N 43°25' E 004°50'0 0.0
2015-Jan-26 02:33N 43°25' E 004°50'0 0.0
2015-Jan-26 01:34N 43°25' E 004°50'0 0.0
2015-Jan-26 00:33N 43°25' E 004°50'0 0.0
2015-Jan-25 23:32N 43°25' E 004°50'0 0.0
2015-Jan-25 22:32N 43°25' E 004°50'0 0.1
2015-Jan-25 21:33N 43°25' E 004°50'6 6.5
2015-Jan-25 20:33N 43°22' E 004°58'9 9.1
2015-Jan-25 19:33N 43°13' E 005°02'75 9.4
2015-Jan-25 11:33N 42°55' E 006°42'1312.3
2015-Jan-25 10:29N 43°00' E 006°58'1212.0
2015-Jan-25 09:30N 43°05' E 007°13'1212.3
2015-Jan-25 08:33N 43°10' E 007°28'5112.7
2015-Jan-25 04:33N 43°31' E 008°32'1212.5
2015-Jan-25 03:33N 43°37' E 008°46'1212.4
2015-Jan-25 02:34N 43°43' E 009°02'1212.3
2015-Jan-25 01:33N 43°48' E 009°17'1212.4
2015-Jan-25 00:34N 43°54' E 009°32'1212.3
2015-Jan-24 23:33N 43°59' E 009°47'6 5.7
2015-Jan-24 22:31N 44°02' E 009°54'0 0.0
2015-Jan-24 21:31N 44°02' E 009°54'0 0.0
2015-Jan-24 20:28N 44°02' E 009°54'0 0.1
2015-Jan-24 19:31N 44°03' E 009°54'0 0.1
2015-Jan-24 18:31N 44°03' E 009°54'0 0.0
2015-Jan-24 17:31N 44°03' E 009°54'0 0.1
2015-Jan-24 16:31N 44°03' E 009°54'0 0.1
2015-Jan-24 15:33N 44°03' E 009°54'5 4.8
2015-Jan-24 14:33N 44°07' E 009°51'0 0.0
2015-Jan-24 13:31N 44°07' E 009°51'0 0.0
2015-Jan-24 12:33N 44°07' E 009°51'0 0.0
2015-Jan-24 11:33N 44°07' E 009°51'0 0.0
2015-Jan-24 10:33N 44°07' E 009°51'0 0.0
2015-Jan-24 09:33N 44°07' E 009°51'0 0.0
2015-Jan-24 08:33N 44°07' E 009°51'0 0.0
2015-Jan-24 07:33N 44°07' E 009°51'0 0.0
2015-Jan-24 06:33N 44°07' E 009°51'0 0.0
2015-Jan-24 05:33N 44°07' E 009°51'0 0.0
2015-Jan-24 04:33N 44°07' E 009°51'0 0.0
2015-Jan-24 03:33N 44°07' E 009°51'0 0.0
2015-Jan-24 02:32N 44°07' E 009°51'0 0.0
2015-Jan-24 01:32N 44°07' E 009°51'0 0.0
2015-Jan-24 00:32N 44°07' E 009°51'0 0.0
2015-Jan-23 23:33N 44°07' E 009°51'0 0.0
2015-Jan-23 22:33N 44°07' E 009°51'0 0.0
2015-Jan-23 21:33N 44°07' E 009°51'0 0.0
2015-Jan-23 20:33N 44°07' E 009°51'0 0.0
2015-Jan-23 19:33N 44°07' E 009°51'0 0.0
2015-Jan-23 18:33N 44°07' E 009°51'0 0.0
2015-Jan-23 17:33N 44°07' E 009°51'0 0.0
2015-Jan-23 16:28N 44°07' E 009°51'0 0.0
2015-Jan-23 15:32N 44°07' E 009°51'0 0.0
2015-Jan-23 14:31N 44°07' E 009°51'0 0.0
2015-Jan-23 13:31N 44°07' E 009°51'0 0.0
2015-Jan-23 12:33N 44°07' E 009°51'0 0.0
2015-Jan-23 11:33N 44°07' E 009°51'0 0.0
2015-Jan-23 10:33N 44°07' E 009°51'0 0.0
2015-Jan-23 09:33N 44°07' E 009°51'5 5.1
2015-Jan-23 08:33N 44°02' E 009°53'3 3.0
2015-Jan-23 07:33N 43°59' E 009°55'1313.2
2015-Jan-23 06:33N 43°48' E 009°45'1413.9
2015-Jan-23 05:34N 43°37' E 009°33'1413.6
2015-Jan-23 04:33N 43°27' E 009°21'1312.9
2015-Jan-23 03:33N 43°17' E 009°09'  
Track history (hours):
 
Tides and Currents Weather Stations Pressure Air Temp Water Temp Dewpoint Dewpoint Depression Visibility Wind Speed Wind Dir Waves Ship Positions

Karin S

Last reported at 2015-Jan-26 05:34 UTC. Time now 2015-Jan-26 06:26 UTC.
Position N 43°25' E 004°50'.

Length 148 m; draft 7 m.

Type: Ship. MMSI: 304871000.

Date/timePositionNaut miles runAvg speedWind from/ knotsBaromVisibWave heightAir tempDewpointWater temp
2015-Jan-26 05:34N 43°25' E 004°50'0 0.0
2015-Jan-26 04:33N 43°25' E 004°50'0 0.0
2015-Jan-26 03:33N 43°25' E 004°50'0 0.0
2015-Jan-26 02:33N 43°25' E 004°50'0 0.0
2015-Jan-26 01:34N 43°25' E 004°50'0 0.0
2015-Jan-26 00:33N 43°25' E 004°50'0 0.0
2015-Jan-25 23:32N 43°25' E 004°50'0 0.0
2015-Jan-25 22:32N 43°25' E 004°50'0 0.1
2015-Jan-25 21:33N 43°25' E 004°50'6 6.5
2015-Jan-25 20:33N 43°22' E 004°58'9 9.1
2015-Jan-25 19:33N 43°13' E 005°02'75 9.4
2015-Jan-25 11:33N 42°55' E 006°42'1312.3
2015-Jan-25 10:29N 43°00' E 006°58'1212.0
2015-Jan-25 09:30N 43°05' E 007°13'1212.3
2015-Jan-25 08:33N 43°10' E 007°28'5112.7
2015-Jan-25 04:33N 43°31' E 008°32'1212.5
2015-Jan-25 03:33N 43°37' E 008°46'1212.4
2015-Jan-25 02:34N 43°43' E 009°02'1212.3
2015-Jan-25 01:33N 43°48' E 009°17'1212.4
2015-Jan-25 00:34N 43°54' E 009°32'1212.3
2015-Jan-24 23:33N 43°59' E 009°47'6 5.7
2015-Jan-24 22:31N 44°02' E 009°54'0 0.0
2015-Jan-24 21:31N 44°02' E 009°54'0 0.0
2015-Jan-24 20:28N 44°02' E 009°54'0 0.1
2015-Jan-24 19:31N 44°03' E 009°54'0 0.1
2015-Jan-24 18:31N 44°03' E 009°54'0 0.0
2015-Jan-24 17:31N 44°03' E 009°54'0 0.1
2015-Jan-24 16:31N 44°03' E 009°54'0 0.1
2015-Jan-24 15:33N 44°03' E 009°54'5 4.8
2015-Jan-24 14:33N 44°07' E 009°51'0 0.0
2015-Jan-24 13:31N 44°07' E 009°51'0 0.0
2015-Jan-24 12:33N 44°07' E 009°51'0 0.0
2015-Jan-24 11:33N 44°07' E 009°51'0 0.0
2015-Jan-24 10:33N 44°07' E 009°51'0 0.0
2015-Jan-24 09:33N 44°07' E 009°51'0 0.0
2015-Jan-24 08:33N 44°07' E 009°51'0 0.0
2015-Jan-24 07:33N 44°07' E 009°51'0 0.0
2015-Jan-24 06:33N 44°07' E 009°51'0 0.0
2015-Jan-24 05:33N 44°07' E 009°51'0 0.0
2015-Jan-24 04:33N 44°07' E 009°51'0 0.0
2015-Jan-24 03:33N 44°07' E 009°51'0 0.0
2015-Jan-24 02:32N 44°07' E 009°51'0 0.0
2015-Jan-24 01:32N 44°07' E 009°51'0 0.0
2015-Jan-24 00:32N 44°07' E 009°51'0 0.0
2015-Jan-23 23:33N 44°07' E 009°51'0 0.0
2015-Jan-23 22:33N 44°07' E 009°51'0 0.0
2015-Jan-23 21:33N 44°07' E 009°51'0 0.0
2015-Jan-23 20:33N 44°07' E 009°51'0 0.0
2015-Jan-23 19:33N 44°07' E 009°51'0 0.0
2015-Jan-23 18:33N 44°07' E 009°51'0 0.0
2015-Jan-23 17:33N 44°07' E 009°51'0 0.0
2015-Jan-23 16:28N 44°07' E 009°51'0 0.0
2015-Jan-23 15:32N 44°07' E 009°51'0 0.0
2015-Jan-23 14:31N 44°07' E 009°51'0 0.0
2015-Jan-23 13:31N 44°07' E 009°51'0 0.0
2015-Jan-23 12:33N 44°07' E 009°51'0 0.0
2015-Jan-23 11:33N 44°07' E 009°51'0 0.0
2015-Jan-23 10:33N 44°07' E 009°51'0 0.0
2015-Jan-23 09:33N 44°07' E 009°51'5 5.1
2015-Jan-23 08:33N 44°02' E 009°53'3 3.0
2015-Jan-23 07:33N 43°59' E 009°55'1313.2
2015-Jan-23 06:33N 43°48' E 009°45'1413.9
2015-Jan-23 05:34N 43°37' E 009°33'1413.6
2015-Jan-23 04:33N 43°27' E 009°21'1312.9
2015-Jan-23 03:33N 43°17' E 009°09'  

Dump ship's entire track history